createdAt,value
2022-08-12T00:00:05.397Z,44.77
2022-08-12T00:02:50.510Z,44.86
2022-08-12T00:05:38.307Z,45.13
2022-08-12T00:08:42.610Z,45.21
2022-08-12T00:11:29.582Z,45.29
2022-08-12T00:14:14.675Z,45.02
2022-08-12T00:17:01.241Z,45.57
2022-08-12T00:19:46.444Z,45.57
2022-08-12T00:22:31.887Z,45.54
2022-08-12T00:25:17.900Z,45.72
2022-08-12T00:28:05.383Z,45.06
2022-08-12T00:30:51.079Z,45.52
2022-08-12T00:33:51.630Z,45.22
2022-08-12T00:36:43.269Z,45.50
2022-08-12T00:39:30.334Z,45.64
2022-08-12T00:42:12.781Z,46.14
2022-08-12T00:44:44.889Z,45.84
2022-08-12T00:47:25.143Z,46.39
2022-08-12T00:49:55.157Z,46.00
2022-08-12T00:52:24.103Z,46.29
2022-08-12T00:54:53.761Z,46.50
2022-08-12T00:57:23.061Z,46.52
2022-08-12T00:59:54.210Z,46.57
2022-08-12T01:02:27.747Z,47.11
2022-08-12T01:05:14.626Z,46.85
2022-08-12T01:08:00.713Z,47.63
2022-08-12T01:10:47.442Z,47.27
2022-08-12T01:13:19.442Z,47.65
2022-08-12T01:15:51.323Z,47.63
2022-08-12T01:18:20.616Z,47.38
2022-08-12T01:20:51.344Z,48.01
2022-08-12T01:23:36.606Z,48.08
2022-08-12T01:26:07.807Z,48.17
2022-08-12T01:28:36.970Z,47.72
2022-08-12T01:31:06.434Z,47.97
2022-08-12T01:33:39.028Z,48.03
2022-08-12T01:36:10.826Z,47.94
2022-08-12T01:38:39.454Z,48.50
2022-08-12T01:41:10.101Z,48.46
2022-08-12T01:43:38.690Z,48.23
2022-08-12T01:46:09.738Z,48.74
2022-08-12T01:48:51.378Z,48.75
2022-08-12T01:52:12.649Z,48.71
2022-08-12T01:54:17.374Z,48.71
2022-08-12T01:56:51.872Z,48.88
2022-08-12T01:59:45.540Z,49.25
2022-08-12T02:02:17.204Z,48.72
2022-08-12T02:05:24.802Z,49.67
2022-08-12T02:08:21.086Z,49.07
2022-08-12T02:11:14.491Z,49.41
2022-08-12T02:14:12.714Z,48.98
2022-08-12T02:16:54.884Z,49.44
2022-08-12T02:19:35.742Z,49.54
2022-08-12T02:22:14.817Z,49.40
2022-08-12T02:24:43.751Z,49.83
2022-08-12T02:27:13.986Z,49.80
2022-08-12T02:29:43.221Z,49.87
2022-08-12T02:32:11.430Z,49.33
2022-08-12T02:34:39.142Z,49.12
2022-08-12T02:37:09.693Z,49.34
2022-08-12T02:39:38.496Z,49.29
2022-08-12T02:42:07.837Z,49.63
2022-08-12T02:44:40.183Z,49.48
2022-08-12T02:47:57.142Z,49.61
2022-08-12T02:49:59.478Z,49.13
2022-08-12T02:52:27.992Z,49.21
2022-08-12T02:55:01.482Z,49.54
2022-08-12T02:57:29.629Z,49.26
2022-08-12T02:59:57.461Z,49.48
2022-08-12T03:02:28.750Z,49.40
2022-08-12T03:04:58.366Z,49.92
2022-08-12T03:07:56.114Z,49.73
2022-08-12T03:10:36.552Z,49.85
2022-08-12T03:13:08.188Z,50.56
2022-08-12T03:15:36.561Z,50.40
2022-08-12T03:18:25.725Z,50.02
2022-08-12T03:20:56.256Z,50.28
2022-08-12T03:23:29.625Z,50.51
2022-08-12T03:26:00.622Z,50.21
2022-08-12T03:28:50.317Z,50.50
2022-08-12T03:31:19.564Z,50.68
2022-08-12T03:34:02.310Z,51.09
2022-08-12T03:36:31.809Z,50.97
2022-08-12T03:39:23.561Z,50.94
2022-08-12T03:42:12.284Z,51.10
2022-08-12T03:45:00.740Z,51.32
2022-08-12T03:47:49.833Z,51.51
2022-08-12T03:50:37.004Z,51.57
2022-08-12T03:53:24.220Z,51.49
2022-08-12T03:56:09.319Z,51.42
2022-08-12T03:58:55.566Z,51.70
2022-08-12T04:01:23.458Z,51.71
2022-08-12T04:03:54.605Z,51.16
2022-08-12T04:06:35.316Z,51.82
2022-08-12T04:09:14.591Z,51.59
2022-08-12T04:12:03.021Z,51.90
2022-08-12T04:14:30.882Z,51.83
2022-08-12T04:16:59.090Z,52.48
2022-08-12T04:19:27.207Z,51.62
2022-08-12T04:22:01.639Z,51.92
2022-08-12T04:24:31.430Z,52.21
2022-08-12T04:26:59.224Z,51.22
2022-08-12T04:30:31.214Z,51.39
2022-08-12T04:32:15.739Z,52.04
2022-08-12T04:34:44.511Z,52.00
2022-08-12T04:37:16.033Z,51.81
2022-08-12T04:39:45.901Z,51.31
2022-08-12T04:42:13.772Z,51.47
2022-08-12T04:44:42.494Z,51.41
2022-08-12T04:47:12.218Z,51.45
2022-08-12T04:49:41.052Z,51.25
2022-08-12T04:52:09.007Z,51.38
2022-08-12T04:54:38.174Z,51.19
2022-08-12T04:57:09.351Z,51.54
2022-08-12T04:59:47.562Z,51.46
2022-08-12T05:02:21.270Z,51.28
2022-08-12T05:04:51.455Z,51.48
2022-08-12T05:07:19.639Z,52.09
2022-08-12T05:09:59.023Z,52.03
2022-08-12T05:12:31.483Z,51.63
2022-08-12T05:14:59.250Z,51.10
2022-08-12T05:17:28.043Z,51.43
2022-08-12T05:19:57.070Z,51.25
2022-08-12T05:22:26.302Z,51.41
2022-08-12T05:24:55.597Z,50.84
2022-08-12T05:27:23.752Z,51.00
2022-08-12T05:30:07.007Z,50.98
2022-08-12T05:32:37.592Z,50.65
2022-08-12T05:35:08.156Z,50.91
2022-08-12T05:37:36.448Z,50.66
2022-08-12T05:40:10.983Z,50.54
2022-08-12T05:42:39.627Z,50.48
2022-08-12T05:45:08.658Z,50.34
2022-08-12T05:47:44.839Z,50.18
2022-08-12T05:50:21.263Z,50.43
2022-08-12T05:52:48.976Z,50.40
2022-08-12T05:55:18.148Z,50.20
2022-08-12T05:57:48.998Z,50.06
2022-08-12T06:00:18.391Z,50.27
2022-08-12T06:02:46.620Z,49.54
2022-08-12T06:05:14.456Z,49.98
2022-08-12T06:08:01.738Z,50.37
2022-08-12T06:10:33.176Z,50.15
2022-08-12T06:13:02.529Z,49.82
2022-08-12T06:15:31.219Z,48.90
2022-08-12T06:18:13.837Z,49.34
2022-08-12T06:20:44.801Z,49.12
2022-08-12T06:23:12.900Z,48.83
2022-08-12T06:25:42.193Z,49.32
2022-08-12T06:28:17.211Z,50.22
2022-08-12T06:31:08.185Z,49.02
2022-08-12T06:33:57.870Z,50.03
2022-08-12T06:36:24.992Z,50.07
2022-08-12T06:38:57.999Z,49.06
2022-08-12T06:42:30.566Z,48.52
2022-08-12T06:44:32.739Z,48.58
2022-08-12T06:47:00.597Z,48.82
2022-08-12T06:49:36.358Z,48.15
2022-08-12T06:52:04.891Z,48.00
2022-08-12T06:54:33.262Z,47.87
2022-08-12T06:57:04.851Z,47.54
2022-08-12T06:59:35.529Z,47.34
2022-08-12T07:02:03.268Z,47.16
2022-08-12T07:04:39.226Z,47.46
2022-08-12T07:07:08.657Z,47.10
2022-08-12T07:10:06.907Z,47.27
2022-08-12T07:12:27.960Z,46.86
2022-08-12T07:14:56.503Z,45.87
2022-08-12T07:17:24.222Z,47.04
2022-08-12T07:19:53.566Z,47.81
2022-08-12T07:22:23.271Z,46.21
2022-08-12T07:25:11.412Z,46.65
2022-08-12T07:27:42.271Z,45.53
2022-08-12T07:30:11.337Z,45.23
2022-08-12T07:32:40.180Z,44.53
2022-08-12T07:35:08.727Z,44.54
2022-08-12T07:37:41.639Z,45.04
2022-08-12T07:40:11.590Z,44.39
2022-08-12T07:44:27.903Z,43.11
2022-08-12T07:46:55.549Z,42.62
2022-08-12T07:49:24.755Z,44.53
2022-08-12T07:51:52.442Z,42.98
2022-08-12T07:54:20.044Z,43.36
2022-08-12T07:56:47.748Z,44.23
2022-08-12T07:59:15.513Z,43.96
2022-08-12T08:01:44.620Z,43.48
2022-08-12T08:04:35.298Z,41.62
2022-08-12T08:07:03.346Z,42.12
2022-08-12T08:09:31.837Z,43.30
2022-08-12T08:12:18.639Z,43.39
2022-08-12T08:14:49.959Z,42.85
2022-08-12T08:17:19.850Z,41.58
2022-08-12T08:20:03.324Z,41.14
2022-08-12T08:22:41.435Z,40.40
2022-08-12T08:25:34.826Z,40.50
2022-08-12T08:28:02.862Z,41.13
2022-08-12T08:30:31.921Z,41.43
2022-08-12T08:33:01.225Z,40.15
2022-08-12T08:35:46.241Z,39.67
2022-08-12T08:38:31.898Z,40.93
2022-08-12T08:42:16.660Z,40.45
2022-08-12T08:44:10.625Z,40.96
2022-08-12T08:46:38.640Z,39.98
2022-08-12T08:49:08.549Z,39.38
2022-08-12T08:51:36.976Z,38.26
2022-08-12T08:54:06.699Z,39.64
2022-08-12T08:56:34.648Z,39.74
2022-08-12T08:59:02.451Z,37.38
2022-08-12T09:01:37.751Z,39.11
2022-08-12T09:05:12.658Z,37.51
2022-08-12T09:07:17.852Z,37.42
2022-08-12T09:13:06.305Z,36.27
2022-08-12T09:15:36.332Z,38.53
2022-08-12T09:18:08.773Z,37.44
2022-08-12T09:20:39.434Z,36.01
2022-08-12T09:23:58.837Z,36.27
2022-08-12T09:26:03.837Z,34.59
2022-08-12T09:28:33.029Z,35.23
2022-08-12T09:31:01.230Z,35.21
2022-08-12T09:34:28.894Z,34.58
2022-08-12T09:36:31.102Z,34.35
2022-08-12T09:40:04.295Z,33.61
2022-08-12T09:42:38.908Z,33.50
2022-08-12T09:45:22.816Z,33.55
2022-08-12T09:47:59.627Z,32.74
2022-08-12T09:50:28.574Z,33.50
2022-08-12T09:53:15.693Z,32.28
2022-08-12T09:55:57.336Z,33.75
2022-08-12T09:58:57.818Z,32.21
2022-08-12T10:01:23.418Z,34.02
2022-08-12T10:04:04.230Z,32.55
2022-08-12T10:06:36.751Z,31.35
2022-08-12T10:09:21.738Z,32.05
2022-08-12T10:12:12.270Z,32.46
2022-08-12T10:14:49.960Z,31.13
2022-08-12T10:17:22.801Z,30.60
2022-08-12T10:19:52.847Z,31.28
2022-08-12T10:22:38.852Z,31.48
2022-08-12T10:26:18.233Z,30.55
2022-08-12T10:28:35.119Z,29.91
2022-08-12T10:31:05.091Z,30.81
2022-08-12T10:33:33.547Z,30.66
2022-08-12T10:36:12.393Z,30.58
2022-08-12T10:38:41.516Z,30.35
2022-08-12T10:41:56.940Z,30.37
2022-08-12T10:44:18.524Z,29.58
2022-08-12T10:46:49.412Z,29.83
2022-08-12T10:50:02.464Z,30.10
2022-08-12T10:52:34.335Z,27.62
2022-08-12T10:54:55.961Z,28.48
2022-08-12T10:58:15.041Z,27.91
2022-08-12T11:00:34.808Z,27.42
2022-08-12T11:04:31.666Z,27.66
2022-08-12T11:07:07.348Z,28.68
2022-08-12T11:08:43.047Z,30.49
2022-08-12T11:11:17.814Z,28.65
2022-08-12T11:14:34.066Z,29.33
2022-08-12T11:17:06.437Z,29.69
2022-08-12T11:19:45.978Z,28.12
2022-08-12T11:22:13.872Z,28.23
2022-08-12T11:24:42.026Z,27.68
2022-08-12T11:27:18.926Z,26.92
2022-08-12T11:30:01.761Z,27.00
2022-08-12T11:34:53.757Z,27.96
2022-08-12T11:37:26.085Z,27.00
2022-08-12T11:42:34.771Z,26.58
2022-08-12T11:45:03.500Z,26.33
2022-08-12T11:47:32.840Z,26.81
2022-08-12T11:50:01.942Z,26.84
2022-08-12T11:52:55.457Z,26.35
2022-08-12T11:55:17.882Z,27.10
2022-08-12T11:58:07.613Z,26.61
2022-08-12T12:03:43.691Z,25.54
2022-08-12T12:06:16.365Z,25.56
2022-08-12T12:08:50.370Z,25.15
2022-08-12T12:11:19.226Z,25.23
2022-08-12T12:14:08.323Z,25.47
2022-08-12T12:16:38.209Z,24.77
2022-08-12T12:19:08.836Z,26.08
2022-08-12T12:21:48.740Z,24.25
2022-08-12T12:24:21.176Z,25.91
2022-08-12T12:27:00.781Z,24.60
2022-08-12T12:30:19.552Z,24.84
2022-08-12T12:32:18.587Z,25.19
2022-08-12T12:35:13.917Z,25.11
2022-08-12T12:38:04.269Z,23.97
2022-08-12T12:40:29.813Z,24.18
2022-08-12T12:43:43.357Z,25.16
2022-08-12T12:47:58.219Z,24.07
2022-08-12T12:50:35.201Z,25.28
2022-08-12T12:55:26.535Z,25.01
2022-08-12T12:59:33.779Z,25.30
2022-08-12T13:02:12.656Z,24.27
2022-08-12T13:04:40.742Z,23.67
2022-08-12T13:07:09.144Z,25.24
2022-08-12T13:09:37.172Z,24.87
2022-08-12T13:12:08.837Z,24.71
2022-08-12T13:14:39.683Z,24.45
2022-08-12T13:17:09.580Z,22.78
2022-08-12T13:19:43.438Z,24.83
2022-08-12T13:22:18.542Z,24.60
2022-08-12T13:24:54.650Z,23.56
2022-08-12T13:27:28.321Z,24.13
2022-08-12T13:30:11.335Z,24.33
2022-08-12T13:32:40.775Z,24.13
2022-08-12T13:35:19.661Z,24.60
2022-08-12T13:37:54.717Z,24.05
2022-08-12T13:40:24.805Z,23.83
2022-08-12T13:42:57.477Z,23.93
2022-08-12T13:45:27.134Z,22.82
2022-08-12T13:47:58.397Z,23.98
2022-08-12T13:50:32.540Z,23.56
2022-08-12T13:53:22.996Z,22.97
2022-08-12T13:56:02.006Z,22.92
2022-08-12T13:58:32.922Z,24.10
2022-08-12T14:01:06.159Z,24.43
2022-08-12T14:03:50.188Z,23.50
2022-08-12T14:06:19.846Z,23.49
2022-08-12T14:08:49.878Z,23.82
2022-08-12T14:11:19.286Z,22.78
2022-08-12T14:14:03.855Z,22.33
2022-08-12T14:16:49.035Z,22.58
2022-08-12T14:19:25.016Z,22.34
2022-08-12T14:22:00.756Z,23.48
2022-08-12T14:24:35.309Z,22.55
2022-08-12T14:27:03.211Z,22.11
2022-08-12T14:29:38.186Z,21.65
2022-08-12T14:32:20.553Z,23.39
2022-08-12T14:34:51.716Z,23.40
2022-08-12T14:37:56.782Z,22.98
2022-08-12T14:40:09.341Z,23.02
2022-08-12T14:42:37.022Z,22.00
2022-08-12T14:45:07.094Z,22.60
2022-08-12T14:47:36.219Z,23.06
2022-08-12T14:50:37.503Z,23.44
2022-08-12T14:54:49.942Z,23.02
2022-08-12T14:58:37.950Z,21.46
2022-08-12T15:01:46.055Z,23.17
2022-08-12T15:04:17.307Z,22.47
2022-08-12T15:06:52.726Z,22.96
2022-08-12T15:09:28.844Z,22.73
2022-08-12T15:12:03.334Z,22.54
2022-08-12T15:14:31.397Z,22.68
2022-08-12T15:17:00.717Z,22.16
2022-08-12T15:20:11.036Z,22.17
2022-08-12T15:22:37.103Z,22.16
2022-08-12T15:25:07.086Z,22.61
2022-08-12T15:28:04.259Z,22.03
2022-08-12T15:30:26.697Z,20.54
2022-08-12T15:32:58.305Z,21.94
2022-08-12T15:35:31.480Z,21.63
2022-08-12T15:38:11.984Z,22.40
2022-08-12T15:40:48.342Z,22.75
2022-08-12T15:43:35.555Z,22.28
2022-08-12T15:46:06.203Z,22.31
2022-08-12T15:48:34.006Z,22.01
2022-08-12T15:51:04.101Z,21.81
2022-08-12T15:53:54.697Z,21.68
2022-08-12T15:56:29.091Z,21.34
2022-08-12T15:58:59.169Z,20.82
2022-08-12T16:01:34.984Z,21.54
2022-08-12T16:04:05.141Z,22.02
2022-08-12T16:09:55.837Z,21.83
2022-08-12T16:12:12.332Z,22.09
2022-08-12T16:14:42.450Z,22.17
2022-08-12T16:17:15.668Z,21.59
2022-08-12T16:20:03.921Z,21.19
2022-08-12T16:22:32.575Z,22.10
2022-08-12T16:25:03.561Z,21.71
2022-08-12T16:27:38.632Z,21.11
2022-08-12T16:30:07.654Z,20.65
2022-08-12T16:32:36.746Z,20.90
2022-08-12T16:35:08.039Z,21.83
2022-08-12T16:38:24.401Z,21.99
2022-08-12T16:40:33.747Z,22.00
2022-08-12T16:43:04.670Z,21.92
2022-08-12T16:46:07.972Z,22.02
2022-08-12T16:48:34.757Z,22.38
2022-08-12T16:51:05.825Z,22.41
2022-08-12T16:53:44.654Z,21.76
2022-08-12T16:56:14.761Z,22.42
2022-08-12T16:58:43.402Z,22.65
2022-08-12T17:01:14.601Z,22.31
2022-08-12T17:03:52.084Z,22.86
2022-08-12T17:06:22.386Z,22.82
2022-08-12T17:09:03.568Z,23.02
2022-08-12T17:11:38.835Z,22.05
2022-08-12T17:14:07.502Z,23.02
2022-08-12T17:16:37.437Z,22.88
2022-08-12T17:19:09.249Z,23.01
2022-08-12T17:21:41.673Z,22.97
2022-08-12T17:24:30.460Z,23.04
2022-08-12T17:26:59.665Z,22.77
2022-08-12T17:30:00.284Z,21.96
2022-08-12T17:32:15.404Z,22.86
2022-08-12T17:35:15.269Z,22.72
2022-08-12T17:37:45.171Z,22.82
2022-08-12T17:40:34.651Z,22.67
2022-08-12T17:43:03.217Z,22.95
2022-08-12T17:45:52.638Z,23.33
2022-08-12T17:48:21.885Z,23.54
2022-08-12T17:50:51.746Z,22.75
2022-08-12T17:53:20.799Z,23.12
2022-08-12T17:55:51.024Z,23.49
2022-08-12T17:58:35.809Z,22.93
2022-08-12T18:01:11.093Z,23.09
2022-08-12T18:04:04.578Z,23.39
2022-08-12T18:06:28.604Z,23.39
2022-08-12T18:08:59.182Z,23.27
2022-08-12T18:12:04.615Z,23.50
2022-08-12T18:14:37.351Z,23.81
2022-08-12T18:17:08.688Z,23.59
2022-08-12T18:20:44.659Z,23.94
2022-08-12T18:23:12.710Z,24.64
2022-08-12T18:26:16.015Z,23.30
2022-08-12T18:28:48.254Z,24.65
2022-08-12T18:31:17.769Z,24.67
2022-08-12T18:33:46.889Z,24.71
2022-08-12T18:36:22.351Z,24.18
2022-08-12T18:38:56.055Z,24.78
2022-08-12T18:41:35.696Z,25.02
2022-08-12T18:44:09.602Z,25.05
2022-08-12T18:46:53.736Z,25.08
2022-08-12T18:49:29.634Z,25.12
2022-08-12T18:52:04.308Z,24.62
2022-08-12T18:54:34.857Z,24.83
2022-08-12T18:57:07.034Z,25.06
2022-08-12T19:00:01.890Z,25.42
2022-08-12T19:02:36.542Z,24.75
2022-08-12T19:05:10.591Z,25.36
2022-08-12T19:08:00.035Z,25.07
2022-08-12T19:10:29.831Z,25.48
2022-08-12T19:13:23.216Z,25.12
2022-08-12T19:15:53.252Z,24.84
2022-08-12T19:18:22.010Z,24.52
2022-08-12T19:20:50.657Z,24.50
2022-08-12T19:23:21.509Z,25.32
2022-08-12T19:25:59.669Z,25.31
2022-08-12T19:28:34.713Z,25.82
2022-08-12T19:31:55.762Z,25.42
2022-08-12T19:35:06.635Z,25.19
2022-08-12T19:37:22.908Z,25.58
2022-08-12T19:40:08.992Z,26.77
2022-08-12T19:42:57.648Z,27.22
2022-08-12T19:45:43.460Z,27.23
2022-08-12T19:48:19.266Z,27.75
2022-08-12T19:50:50.086Z,27.96
2022-08-12T19:53:22.945Z,28.29
2022-08-12T19:55:53.793Z,28.66
2022-08-12T19:58:22.929Z,28.42
2022-08-12T20:00:52.761Z,28.90
2022-08-12T20:03:38.033Z,28.66
2022-08-12T20:06:14.090Z,29.23
2022-08-12T20:08:48.761Z,29.15
2022-08-12T20:12:10.354Z,29.80
2022-08-12T20:14:14.135Z,30.12
2022-08-12T20:16:52.783Z,30.25
2022-08-12T20:19:53.226Z,29.74
2022-08-12T20:22:16.730Z,30.01
2022-08-12T20:24:55.317Z,30.75
2022-08-12T20:28:04.370Z,30.37
2022-08-12T20:30:20.601Z,30.28
2022-08-12T20:33:05.682Z,30.31
2022-08-12T20:36:06.178Z,30.03
2022-08-12T20:38:26.598Z,30.85
2022-08-12T20:40:55.635Z,30.48
2022-08-12T20:43:28.374Z,30.97
2022-08-12T20:45:59.990Z,30.92
2022-08-12T20:48:29.544Z,31.11
2022-08-12T20:50:57.605Z,31.22
2022-08-12T20:53:27.761Z,32.55
2022-08-12T20:56:19.545Z,33.88
2022-08-12T20:58:49.842Z,36.36
2022-08-12T21:01:23.857Z,39.38
2022-08-12T21:04:14.317Z,39.58
2022-08-12T21:07:04.545Z,38.18
2022-08-12T21:09:41.423Z,40.24
2022-08-12T21:12:27.982Z,40.07
2022-08-12T21:15:16.998Z,38.09
2022-08-12T21:18:00.923Z,39.72
2022-08-12T21:20:37.006Z,40.40
2022-08-12T21:23:06.204Z,38.36
2022-08-12T21:25:44.659Z,39.09
2022-08-12T21:28:13.173Z,36.76
2022-08-12T21:31:11.088Z,38.42
2022-08-12T21:33:31.363Z,39.32
2022-08-12T21:36:00.929Z,38.07
2022-08-12T21:38:34.455Z,39.63
2022-08-12T21:41:09.000Z,37.95
2022-08-12T21:43:45.286Z,39.51
2022-08-12T21:46:34.648Z,38.49
2022-08-12T21:49:05.456Z,40.72
2022-08-12T21:51:35.354Z,41.16
2022-08-12T21:54:21.908Z,41.61
2022-08-12T21:56:52.968Z,40.83
2022-08-12T21:59:22.041Z,39.65
2022-08-12T22:01:51.419Z,41.16
2022-08-12T22:04:36.922Z,42.28
2022-08-12T22:07:06.230Z,39.71
2022-08-12T22:09:43.339Z,42.12
2022-08-12T22:12:29.119Z,41.43
2022-08-12T22:14:56.798Z,42.10
2022-08-12T22:17:49.388Z,41.42
2022-08-12T22:20:22.074Z,41.30
2022-08-12T22:22:56.779Z,42.80
2022-08-12T22:25:27.816Z,42.84
2022-08-12T22:28:13.169Z,37.45
2022-08-12T22:30:59.018Z,39.76
2022-08-12T22:33:28.058Z,39.70
2022-08-12T22:35:59.539Z,39.16
2022-08-12T22:38:29.738Z,39.12
2022-08-12T22:41:00.738Z,38.24
2022-08-12T22:43:58.992Z,36.20
2022-08-12T22:46:59.297Z,36.45
2022-08-12T22:49:36.743Z,36.30
2022-08-12T22:52:18.319Z,36.69
2022-08-12T22:55:02.974Z,39.07
2022-08-12T22:57:53.395Z,38.27
2022-08-12T23:00:23.714Z,37.92
2022-08-12T23:03:00.864Z,39.39
2022-08-12T23:05:57.236Z,37.89
2022-08-12T23:08:29.979Z,38.96
2022-08-12T23:10:59.441Z,39.40
2022-08-12T23:13:45.027Z,39.15
2022-08-12T23:16:28.277Z,39.15
2022-08-12T23:19:01.857Z,39.87
2022-08-12T23:22:06.738Z,39.93
2022-08-12T23:24:30.586Z,38.87
2022-08-12T23:27:16.549Z,40.37
2022-08-12T23:30:05.924Z,39.68
2022-08-12T23:32:35.938Z,39.65
2022-08-12T23:35:06.603Z,39.04
2022-08-12T23:37:46.533Z,38.85
2022-08-12T23:40:22.527Z,39.51
2022-08-12T23:42:54.188Z,40.92
2022-08-12T23:45:31.682Z,39.31
2022-08-12T23:48:02.104Z,39.63
2022-08-12T23:50:34.200Z,39.43
2022-08-12T23:53:06.713Z,40.26
2022-08-12T23:55:45.680Z,40.57
2022-08-12T23:58:17.791Z,39.88
